sensor_id;sensor_type;location;lat;lon;timestamp;P1;durP1;ratioP1;P2;durP2;ratioP2
55641;SDS011;41509;53.108;6.100;2023-12-20T00:01:54;7.78;;;1.90;;
55641;SDS011;41509;53.108;6.100;2023-12-20T00:04:19;5.57;;;1.63;;
55641;SDS011;41509;53.108;6.100;2023-12-20T00:06:45;14.03;;;1.23;;
55641;SDS011;41509;53.108;6.100;2023-12-20T00:09:10;10.10;;;1.33;;
55641;SDS011;41509;53.108;6.100;2023-12-20T00:11:36;14.90;;;1.87;;
55641;SDS011;41509;53.108;6.100;2023-12-20T00:14:02;9.40;;;1.47;;
55641;SDS011;41509;53.108;6.100;2023-12-20T00:16:27;8.17;;;1.50;;
55641;SDS011;41509;53.108;6.100;2023-12-20T00:18:53;8.80;;;1.27;;
55641;SDS011;41509;53.108;6.100;2023-12-20T00:21:18;6.50;;;1.43;;
55641;SDS011;41509;53.108;6.100;2023-12-20T00:23:44;7.53;;;1.37;;
55641;SDS011;41509;53.108;6.100;2023-12-20T00:26:09;11.23;;;2.10;;
55641;SDS011;41509;53.108;6.100;2023-12-20T00:28:35;9.67;;;1.70;;
55641;SDS011;41509;53.108;6.100;2023-12-20T00:31:01;8.90;;;2.13;;
55641;SDS011;41509;53.108;6.100;2023-12-20T00:33:27;10.90;;;1.15;;
55641;SDS011;41509;53.108;6.100;2023-12-20T00:35:52;12.43;;;2.07;;
55641;SDS011;41509;53.108;6.100;2023-12-20T00:38:18;12.90;;;1.65;;
55641;SDS011;41509;53.108;6.100;2023-12-20T00:40:44;10.07;;;3.10;;
55641;SDS011;41509;53.108;6.100;2023-12-20T00:43:09;8.10;;;1.03;;
55641;SDS011;41509;53.108;6.100;2023-12-20T00:45:35;7.93;;;1.33;;
55641;SDS011;41509;53.108;6.100;2023-12-20T00:48:04;10.70;;;1.75;;
55641;SDS011;41509;53.108;6.100;2023-12-20T00:50:30;13.18;;;1.52;;
55641;SDS011;41509;53.108;6.100;2023-12-20T00:52:55;11.47;;;2.07;;
55641;SDS011;41509;53.108;6.100;2023-12-20T00:55:21;6.37;;;1.40;;
55641;SDS011;41509;53.108;6.100;2023-12-20T00:57:47;6.80;;;1.43;;
55641;SDS011;41509;53.108;6.100;2023-12-20T01:00:12;15.10;;;2.03;;
55641;SDS011;41509;53.108;6.100;2023-12-20T01:02:38;10.27;;;2.42;;
55641;SDS011;41509;53.108;6.100;2023-12-20T01:07:32;16.27;;;1.90;;
55641;SDS011;41509;53.108;6.100;2023-12-20T01:09:58;12.82;;;3.78;;
55641;SDS011;41509;53.108;6.100;2023-12-20T01:12:23;11.67;;;1.57;;
55641;SDS011;41509;53.108;6.100;2023-12-20T01:14:49;15.43;;;1.97;;
55641;SDS011;41509;53.108;6.100;2023-12-20T01:17:14;11.17;;;1.73;;
55641;SDS011;41509;53.108;6.100;2023-12-20T01:19:40;8.40;;;1.97;;
55641;SDS011;41509;53.108;6.100;2023-12-20T01:22:06;17.23;;;1.98;;
55641;SDS011;41509;53.108;6.100;2023-12-20T01:24:32;9.83;;;2.67;;
55641;SDS011;41509;53.108;6.100;2023-12-20T01:26:57;18.67;;;2.50;;
55641;SDS011;41509;53.108;6.100;2023-12-20T01:29:25;9.90;;;2.70;;
55641;SDS011;41509;53.108;6.100;2023-12-20T01:31:51;15.40;;;1.57;;
55641;SDS011;41509;53.108;6.100;2023-12-20T01:34:17;16.57;;;1.80;;
55641;SDS011;41509;53.108;6.100;2023-12-20T01:36:43;17.83;;;2.65;;
55641;SDS011;41509;53.108;6.100;2023-12-20T01:39:08;12.47;;;2.50;;
55641;SDS011;41509;53.108;6.100;2023-12-20T01:41:34;21.70;;;3.00;;
55641;SDS011;41509;53.108;6.100;2023-12-20T01:43:59;15.60;;;2.90;;
55641;SDS011;41509;53.108;6.100;2023-12-20T01:46:25;14.87;;;2.00;;
55641;SDS011;41509;53.108;6.100;2023-12-20T01:48:54;12.45;;;2.38;;
55641;SDS011;41509;53.108;6.100;2023-12-20T01:51:19;20.07;;;2.30;;
55641;SDS011;41509;53.108;6.100;2023-12-20T01:53:46;18.20;;;1.70;;
55641;SDS011;41509;53.108;6.100;2023-12-20T01:56:12;9.50;;;2.13;;
55641;SDS011;41509;53.108;6.100;2023-12-20T01:58:40;12.70;;;2.25;;
55641;SDS011;41509;53.108;6.100;2023-12-20T02:01:11;10.75;;;2.22;;
55641;SDS011;41509;53.108;6.100;2023-12-20T02:03:38;11.98;;;2.10;;
55641;SDS011;41509;53.108;6.100;2023-12-20T02:06:07;14.32;;;3.20;;
55641;SDS011;41509;53.108;6.100;2023-12-20T02:08:33;15.77;;;2.90;;
55641;SDS011;41509;53.108;6.100;2023-12-20T02:10:59;25.80;;;2.50;;
55641;SDS011;41509;53.108;6.100;2023-12-20T02:13:25;9.17;;;2.97;;
55641;SDS011;41509;53.108;6.100;2023-12-20T02:15:51;16.50;;;2.40;;
55641;SDS011;41509;53.108;6.100;2023-12-20T02:18:17;14.23;;;2.72;;
55641;SDS011;41509;53.108;6.100;2023-12-20T02:20:43;15.07;;;2.30;;
55641;SDS011;41509;53.108;6.100;2023-12-20T02:23:09;23.87;;;3.67;;
55641;SDS011;41509;53.108;6.100;2023-12-20T02:25:35;16.10;;;3.17;;
55641;SDS011;41509;53.108;6.100;2023-12-20T02:28:01;9.03;;;3.07;;
55641;SDS011;41509;53.108;6.100;2023-12-20T02:30:27;16.25;;;3.60;;
55641;SDS011;41509;53.108;6.100;2023-12-20T02:32:53;13.43;;;2.37;;
55641;SDS011;41509;53.108;6.100;2023-12-20T02:35:19;16.80;;;3.45;;
55641;SDS011;41509;53.108;6.100;2023-12-20T02:37:44;14.83;;;3.00;;
55641;SDS011;41509;53.108;6.100;2023-12-20T02:40:10;19.27;;;2.70;;
55641;SDS011;41509;53.108;6.100;2023-12-20T02:42:36;14.90;;;2.33;;
55641;SDS011;41509;53.108;6.100;2023-12-20T02:45:01;19.03;;;3.03;;
55641;SDS011;41509;53.108;6.100;2023-12-20T02:47:27;17.37;;;2.77;;
55641;SDS011;41509;53.108;6.100;2023-12-20T02:49:54;16.15;;;2.85;;
55641;SDS011;41509;53.108;6.100;2023-12-20T02:52:20;13.83;;;2.67;;
55641;SDS011;41509;53.108;6.100;2023-12-20T02:54:51;20.77;;;2.50;;
55641;SDS011;41509;53.108;6.100;2023-12-20T02:57:19;12.65;;;2.95;;
55641;SDS011;41509;53.108;6.100;2023-12-20T02:59:45;14.77;;;2.93;;
55641;SDS011;41509;53.108;6.100;2023-12-20T03:02:11;22.00;;;3.10;;
55641;SDS011;41509;53.108;6.100;2023-12-20T03:04:36;22.40;;;3.37;;
55641;SDS011;41509;53.108;6.100;2023-12-20T03:07:02;19.60;;;3.93;;
55641;SDS011;41509;53.108;6.100;2023-12-20T03:09:30;18.52;;;2.53;;
55641;SDS011;41509;53.108;6.100;2023-12-20T03:11:56;15.17;;;2.50;;
55641;SDS011;41509;53.108;6.100;2023-12-20T03:14:21;14.57;;;2.30;;
55641;SDS011;41509;53.108;6.100;2023-12-20T03:16:49;17.37;;;3.27;;
55641;SDS011;41509;53.108;6.100;2023-12-20T03:19:15;14.80;;;2.33;;
55641;SDS011;41509;53.108;6.100;2023-12-20T03:24:06;19.00;;;2.40;;
55641;SDS011;41509;53.108;6.100;2023-12-20T03:26:32;21.70;;;2.97;;
55641;SDS011;41509;53.108;6.100;2023-12-20T03:28:58;17.67;;;3.47;;
55641;SDS011;41509;53.108;6.100;2023-12-20T03:31:23;19.87;;;3.33;;
55641;SDS011;41509;53.108;6.100;2023-12-20T03:33:49;21.37;;;3.13;;
55641;SDS011;41509;53.108;6.100;2023-12-20T03:36:16;13.85;;;2.50;;
55641;SDS011;41509;53.108;6.100;2023-12-20T03:38:41;19.23;;;2.00;;
55641;SDS011;41509;53.108;6.100;2023-12-20T03:41:07;10.43;;;2.10;;
55641;SDS011;41509;53.108;6.100;2023-12-20T03:43:33;23.97;;;3.57;;
55641;SDS011;41509;53.108;6.100;2023-12-20T03:45:58;13.03;;;2.30;;
55641;SDS011;41509;53.108;6.100;2023-12-20T03:48:25;16.35;;;3.17;;
55641;SDS011;41509;53.108;6.100;2023-12-20T03:50:51;19.38;;;2.75;;
55641;SDS011;41509;53.108;6.100;2023-12-20T03:53:16;10.63;;;2.30;;
55641;SDS011;41509;53.108;6.100;2023-12-20T03:55:42;10.60;;;2.90;;
55641;SDS011;41509;53.108;6.100;2023-12-20T03:58:07;12.87;;;3.47;;
55641;SDS011;41509;53.108;6.100;2023-12-20T04:00:33;17.48;;;2.88;;
55641;SDS011;41509;53.108;6.100;2023-12-20T04:02:59;11.20;;;3.00;;
55641;SDS011;41509;53.108;6.100;2023-12-20T04:05:24;12.43;;;2.80;;
55641;SDS011;41509;53.108;6.100;2023-12-20T04:07:50;24.07;;;3.27;;
55641;SDS011;41509;53.108;6.100;2023-12-20T04:10:16;21.67;;;3.87;;
55641;SDS011;41509;53.108;6.100;2023-12-20T04:12:43;16.60;;;2.67;;
55641;SDS011;41509;53.108;6.100;2023-12-20T04:15:11;25.77;;;4.10;;
55641;SDS011;41509;53.108;6.100;2023-12-20T04:17:40;16.67;;;2.78;;
55641;SDS011;41509;53.108;6.100;2023-12-20T04:20:06;12.77;;;3.00;;
55641;SDS011;41509;53.108;6.100;2023-12-20T04:22:32;10.95;;;1.95;;
55641;SDS011;41509;53.108;6.100;2023-12-20T04:25:00;15.38;;;3.35;;
55641;SDS011;41509;53.108;6.100;2023-12-20T04:27:26;11.87;;;2.83;;
55641;SDS011;41509;53.108;6.100;2023-12-20T04:29:51;15.27;;;3.30;;
55641;SDS011;41509;53.108;6.100;2023-12-20T04:32:17;12.33;;;1.90;;
55641;SDS011;41509;53.108;6.100;2023-12-20T04:34:42;20.37;;;3.17;;
55641;SDS011;41509;53.108;6.100;2023-12-20T04:37:08;15.70;;;2.83;;
55641;SDS011;41509;53.108;6.100;2023-12-20T04:39:34;22.83;;;3.00;;
55641;SDS011;41509;53.108;6.100;2023-12-20T04:41:59;17.93;;;3.17;;
55641;SDS011;41509;53.108;6.100;2023-12-20T04:44:25;15.93;;;3.30;;
55641;SDS011;41509;53.108;6.100;2023-12-20T04:49:21;11.90;;;2.83;;
55641;SDS011;41509;53.108;6.100;2023-12-20T04:51:47;14.97;;;2.70;;
55641;SDS011;41509;53.108;6.100;2023-12-20T04:54:12;17.03;;;3.17;;
55641;SDS011;41509;53.108;6.100;2023-12-20T04:56:38;18.58;;;2.63;;
55641;SDS011;41509;53.108;6.100;2023-12-20T04:59:04;10.57;;;2.43;;
55641;SDS011;41509;53.108;6.100;2023-12-20T05:01:30;19.33;;;2.88;;
55641;SDS011;41509;53.108;6.100;2023-12-20T05:03:56;11.97;;;1.97;;
55641;SDS011;41509;53.108;6.100;2023-12-20T05:06:21;16.80;;;3.10;;
55641;SDS011;41509;53.108;6.100;2023-12-20T05:08:47;16.30;;;3.57;;
55641;SDS011;41509;53.108;6.100;2023-12-20T05:11:13;9.20;;;2.90;;
55641;SDS011;41509;53.108;6.100;2023-12-20T05:13:40;13.60;;;2.42;;
55641;SDS011;41509;53.108;6.100;2023-12-20T05:16:05;18.33;;;2.87;;
55641;SDS011;41509;53.108;6.100;2023-12-20T05:18:31;14.27;;;2.63;;
55641;SDS011;41509;53.108;6.100;2023-12-20T05:20:57;22.50;;;3.43;;
55641;SDS011;41509;53.108;6.100;2023-12-20T05:23:23;20.40;;;3.15;;
55641;SDS011;41509;53.108;6.100;2023-12-20T05:25:48;25.83;;;3.33;;
55641;SDS011;41509;53.108;6.100;2023-12-20T05:28:15;21.70;;;4.00;;
55641;SDS011;41509;53.108;6.100;2023-12-20T05:30:43;15.90;;;2.85;;
55641;SDS011;41509;53.108;6.100;2023-12-20T05:33:11;21.02;;;3.40;;
55641;SDS011;41509;53.108;6.100;2023-12-20T05:35:37;20.23;;;2.93;;
55641;SDS011;41509;53.108;6.100;2023-12-20T05:38:02;14.00;;;3.27;;
55641;SDS011;41509;53.108;6.100;2023-12-20T05:40:28;14.67;;;2.73;;
55641;SDS011;41509;53.108;6.100;2023-12-20T05:42:53;13.67;;;1.90;;
55641;SDS011;41509;53.108;6.100;2023-12-20T05:45:19;11.20;;;2.93;;
55641;SDS011;41509;53.108;6.100;2023-12-20T05:47:45;24.57;;;3.33;;
55641;SDS011;41509;53.108;6.100;2023-12-20T05:50:10;22.53;;;2.93;;
55641;SDS011;41509;53.108;6.100;2023-12-20T05:52:36;18.30;;;2.40;;
55641;SDS011;41509;53.108;6.100;2023-12-20T05:55:01;20.43;;;2.63;;
55641;SDS011;41509;53.108;6.100;2023-12-20T05:57:27;16.13;;;3.25;;
55641;SDS011;41509;53.108;6.100;2023-12-20T05:59:53;12.87;;;2.47;;
55641;SDS011;41509;53.108;6.100;2023-12-20T06:02:27;19.73;;;2.85;;
55641;SDS011;41509;53.108;6.100;2023-12-20T06:04:53;15.43;;;3.27;;
55641;SDS011;41509;53.108;6.100;2023-12-20T06:07:18;12.03;;;2.57;;
55641;SDS011;41509;53.108;6.100;2023-12-20T06:09:44;32.22;;;3.25;;
55641;SDS011;41509;53.108;6.100;2023-12-20T06:12:10;17.93;;;2.87;;
55641;SDS011;41509;53.108;6.100;2023-12-20T06:14:35;17.83;;;3.17;;
55641;SDS011;41509;53.108;6.100;2023-12-20T06:17:01;20.73;;;3.23;;
55641;SDS011;41509;53.108;6.100;2023-12-20T06:19:27;24.50;;;3.05;;
55641;SDS011;41509;53.108;6.100;2023-12-20T06:21:53;13.38;;;2.28;;
55641;SDS011;41509;53.108;6.100;2023-12-20T06:24:22;17.33;;;3.10;;
55641;SDS011;41509;53.108;6.100;2023-12-20T06:26:47;13.40;;;2.90;;
55641;SDS011;41509;53.108;6.100;2023-12-20T06:29:15;14.32;;;3.53;;
55641;SDS011;41509;53.108;6.100;2023-12-20T06:31:41;18.33;;;2.77;;
55641;SDS011;41509;53.108;6.100;2023-12-20T06:34:06;17.83;;;2.83;;
55641;SDS011;41509;53.108;6.100;2023-12-20T06:36:32;13.52;;;2.92;;
55641;SDS011;41509;53.108;6.100;2023-12-20T06:38:58;14.53;;;3.30;;
55641;SDS011;41509;53.108;6.100;2023-12-20T06:41:23;13.83;;;2.43;;
55641;SDS011;41509;53.108;6.100;2023-12-20T06:43:51;17.83;;;2.80;;
55641;SDS011;41509;53.108;6.100;2023-12-20T06:46:18;18.90;;;3.25;;
55641;SDS011;41509;53.108;6.100;2023-12-20T06:48:43;20.57;;;2.70;;
55641;SDS011;41509;53.108;6.100;2023-12-20T06:51:14;23.43;;;2.80;;
55641;SDS011;41509;53.108;6.100;2023-12-20T06:53:40;13.77;;;2.92;;
55641;SDS011;41509;53.108;6.100;2023-12-20T06:56:06;16.07;;;3.27;;
55641;SDS011;41509;53.108;6.100;2023-12-20T06:58:32;16.45;;;3.03;;
55641;SDS011;41509;53.108;6.100;2023-12-20T07:00:58;21.83;;;2.77;;
55641;SDS011;41509;53.108;6.100;2023-12-20T07:03:23;11.20;;;2.70;;
55641;SDS011;41509;53.108;6.100;2023-12-20T07:05:52;17.67;;;4.05;;
55641;SDS011;41509;53.108;6.100;2023-12-20T07:08:17;20.03;;;3.87;;
55641;SDS011;41509;53.108;6.100;2023-12-20T07:10:44;18.80;;;2.95;;
55641;SDS011;41509;53.108;6.100;2023-12-20T07:13:10;15.13;;;2.87;;
55641;SDS011;41509;53.108;6.100;2023-12-20T07:15:35;25.93;;;3.10;;
55641;SDS011;41509;53.108;6.100;2023-12-20T07:18:01;19.15;;;4.45;;
55641;SDS011;41509;53.108;6.100;2023-12-20T07:20:27;17.20;;;3.20;;
55641;SDS011;41509;53.108;6.100;2023-12-20T07:22:53;20.73;;;4.00;;
55641;SDS011;41509;53.108;6.100;2023-12-20T07:25:20;16.25;;;3.25;;
55641;SDS011;41509;53.108;6.100;2023-12-20T07:27:45;19.23;;;3.17;;
55641;SDS011;41509;53.108;6.100;2023-12-20T07:30:11;15.97;;;3.47;;
55641;SDS011;41509;53.108;6.100;2023-12-20T07:32:37;16.52;;;2.92;;
55641;SDS011;41509;53.108;6.100;2023-12-20T07:35:02;18.80;;;2.70;;
55641;SDS011;41509;53.108;6.100;2023-12-20T07:37:28;16.92;;;3.78;;
55641;SDS011;41509;53.108;6.100;2023-12-20T07:39:54;18.20;;;2.73;;
55641;SDS011;41509;53.108;6.100;2023-12-20T07:42:19;20.43;;;3.53;;
55641;SDS011;41509;53.108;6.100;2023-12-20T07:44:47;33.10;;;5.13;;
55641;SDS011;41509;53.108;6.100;2023-12-20T07:47:12;11.50;;;2.73;;
55641;SDS011;41509;53.108;6.100;2023-12-20T07:49:46;17.05;;;2.95;;
55641;SDS011;41509;53.108;6.100;2023-12-20T07:52:16;14.15;;;3.03;;
55641;SDS011;41509;53.108;6.100;2023-12-20T07:54:42;9.55;;;2.88;;
55641;SDS011;41509;53.108;6.100;2023-12-20T07:57:08;15.93;;;2.77;;
55641;SDS011;41509;53.108;6.100;2023-12-20T07:59:33;21.27;;;3.53;;
55641;SDS011;41509;53.108;6.100;2023-12-20T08:01:59;11.53;;;2.90;;
55641;SDS011;41509;53.108;6.100;2023-12-20T08:04:24;20.40;;;2.93;;
55641;SDS011;41509;53.108;6.100;2023-12-20T08:06:50;25.33;;;2.60;;
55641;SDS011;41509;53.108;6.100;2023-12-20T08:09:16;9.20;;;2.30;;
55641;SDS011;41509;53.108;6.100;2023-12-20T08:11:44;14.30;;;2.03;;
55641;SDS011;41509;53.108;6.100;2023-12-20T08:14:10;10.70;;;1.48;;
55641;SDS011;41509;53.108;6.100;2023-12-20T08:16:36;5.73;;;0.83;;
55641;SDS011;41509;53.108;6.100;2023-12-20T08:19:02;4.77;;;0.90;;
55641;SDS011;41509;53.108;6.100;2023-12-20T08:21:27;4.43;;;1.13;;
55641;SDS011;41509;53.108;6.100;2023-12-20T08:23:53;11.40;;;2.30;;
55641;SDS011;41509;53.108;6.100;2023-12-20T08:26:19;21.37;;;3.57;;
55641;SDS011;41509;53.108;6.100;2023-12-20T08:28:46;14.90;;;2.92;;
55641;SDS011;41509;53.108;6.100;2023-12-20T08:31:15;14.00;;;2.97;;
55641;SDS011;41509;53.108;6.100;2023-12-20T08:33:45;15.20;;;2.78;;
55641;SDS011;41509;53.108;6.100;2023-12-20T08:36:12;12.65;;;2.38;;
55641;SDS011;41509;53.108;6.100;2023-12-20T08:38:38;12.98;;;2.83;;
55641;SDS011;41509;53.108;6.100;2023-12-20T08:41:04;15.23;;;2.30;;
55641;SDS011;41509;53.108;6.100;2023-12-20T08:43:33;14.20;;;2.78;;
55641;SDS011;41509;53.108;6.100;2023-12-20T08:46:00;19.73;;;3.47;;
55641;SDS011;41509;53.108;6.100;2023-12-20T08:48:25;20.53;;;3.10;;
55641;SDS011;41509;53.108;6.100;2023-12-20T08:50:51;23.83;;;4.43;;
55641;SDS011;41509;53.108;6.100;2023-12-20T08:53:17;25.27;;;3.35;;
55641;SDS011;41509;53.108;6.100;2023-12-20T08:58:09;14.40;;;3.55;;
55641;SDS011;41509;53.108;6.100;2023-12-20T09:00:35;20.30;;;3.40;;
55641;SDS011;41509;53.108;6.100;2023-12-20T09:03:01;12.33;;;2.67;;
55641;SDS011;41509;53.108;6.100;2023-12-20T09:05:27;20.60;;;3.60;;
55641;SDS011;41509;53.108;6.100;2023-12-20T09:07:53;9.93;;;2.65;;
55641;SDS011;41509;53.108;6.100;2023-12-20T09:10:19;20.53;;;3.67;;
55641;SDS011;41509;53.108;6.100;2023-12-20T09:12:50;8.85;;;1.98;;
55641;SDS011;41509;53.108;6.100;2023-12-20T09:15:19;4.13;;;0.80;;
55641;SDS011;41509;53.108;6.100;2023-12-20T09:17:44;4.67;;;1.17;;
55641;SDS011;41509;53.108;6.100;2023-12-20T09:20:10;6.93;;;0.60;;
55641;SDS011;41509;53.108;6.100;2023-12-20T09:22:36;3.70;;;0.67;;
55641;SDS011;41509;53.108;6.100;2023-12-20T09:25:03;3.80;;;0.85;;
55641;SDS011;41509;53.108;6.100;2023-12-20T09:27:29;5.93;;;0.93;;
55641;SDS011;41509;53.108;6.100;2023-12-20T09:29:55;5.90;;;1.10;;
55641;SDS011;41509;53.108;6.100;2023-12-20T09:32:21;9.20;;;1.20;;
55641;SDS011;41509;53.108;6.100;2023-12-20T09:34:47;3.58;;;0.60;;
55641;SDS011;41509;53.108;6.100;2023-12-20T09:37:13;9.20;;;1.45;;
55641;SDS011;41509;53.108;6.100;2023-12-20T09:39:38;4.28;;;0.90;;
55641;SDS011;41509;53.108;6.100;2023-12-20T09:42:05;5.00;;;0.60;;
55641;SDS011;41509;53.108;6.100;2023-12-20T09:44:31;6.15;;;1.02;;
55641;SDS011;41509;53.108;6.100;2023-12-20T09:46:59;7.45;;;1.48;;
55641;SDS011;41509;53.108;6.100;2023-12-20T09:49:30;8.25;;;1.65;;
55641;SDS011;41509;53.108;6.100;2023-12-20T09:51:57;4.35;;;0.70;;
55641;SDS011;41509;53.108;6.100;2023-12-20T09:54:24;4.93;;;1.30;;
55641;SDS011;41509;53.108;6.100;2023-12-20T09:56:51;10.98;;;1.77;;
55641;SDS011;41509;53.108;6.100;2023-12-20T09:59:17;7.33;;;1.83;;
55641;SDS011;41509;53.108;6.100;2023-12-20T10:01:43;5.20;;;0.90;;
55641;SDS011;41509;53.108;6.100;2023-12-20T10:04:10;9.45;;;1.30;;
55641;SDS011;41509;53.108;6.100;2023-12-20T10:06:41;5.63;;;1.20;;
55641;SDS011;41509;53.108;6.100;2023-12-20T10:09:08;3.72;;;0.93;;
55641;SDS011;41509;53.108;6.100;2023-12-20T10:11:35;9.43;;;1.42;;
55641;SDS011;41509;53.108;6.100;2023-12-20T10:14:05;10.80;;;1.05;;
55641;SDS011;41509;53.108;6.100;2023-12-20T10:16:31;6.97;;;1.27;;
55641;SDS011;41509;53.108;6.100;2023-12-20T10:21:25;14.52;;;1.40;;
55641;SDS011;41509;53.108;6.100;2023-12-20T10:23:55;6.82;;;1.25;;
55641;SDS011;41509;53.108;6.100;2023-12-20T10:26:25;7.30;;;1.55;;
55641;SDS011;41509;53.108;6.100;2023-12-20T10:28:52;11.02;;;1.67;;
55641;SDS011;41509;53.108;6.100;2023-12-20T10:33:58;10.15;;;1.80;;
55641;SDS011;41509;53.108;6.100;2023-12-20T10:36:25;6.60;;;1.10;;
55641;SDS011;41509;53.108;6.100;2023-12-20T10:38:52;7.72;;;0.98;;
55641;SDS011;41509;53.108;6.100;2023-12-20T10:41:24;9.18;;;1.80;;
55641;SDS011;41509;53.108;6.100;2023-12-20T10:43:56;5.43;;;1.45;;
55641;SDS011;41509;53.108;6.100;2023-12-20T10:46:25;5.63;;;1.35;;
55641;SDS011;41509;53.108;6.100;2023-12-20T10:48:53;7.78;;;1.45;;
55641;SDS011;41509;53.108;6.100;2023-12-20T10:51:20;8.90;;;1.10;;
55641;SDS011;41509;53.108;6.100;2023-12-20T10:53:50;5.70;;;1.17;;
55641;SDS011;41509;53.108;6.100;2023-12-20T10:56:17;7.88;;;0.98;;
55641;SDS011;41509;53.108;6.100;2023-12-20T10:58:43;10.23;;;1.35;;
55641;SDS011;41509;53.108;6.100;2023-12-20T11:01:11;9.25;;;1.10;;
55641;SDS011;41509;53.108;6.100;2023-12-20T11:03:41;9.93;;;2.08;;
55641;SDS011;41509;53.108;6.100;2023-12-20T11:11:57;5.07;;;1.50;;
55641;SDS011;41509;53.108;6.100;2023-12-20T11:14:46;11.18;;;1.92;;
55641;SDS011;41509;53.108;6.100;2023-12-20T11:17:13;8.30;;;1.77;;
55641;SDS011;41509;53.108;6.100;2023-12-20T11:22:25;9.40;;;1.35;;
55641;SDS011;41509;53.108;6.100;2023-12-20T11:24:53;8.70;;;1.27;;
55641;SDS011;41509;53.108;6.100;2023-12-20T11:27:20;13.95;;;1.98;;
55641;SDS011;41509;53.108;6.100;2023-12-20T11:29:53;13.93;;;1.57;;
55641;SDS011;41509;53.108;6.100;2023-12-20T11:34:54;7.63;;;1.52;;
55641;SDS011;41509;53.108;6.100;2023-12-20T11:37:36;5.28;;;1.35;;
55641;SDS011;41509;53.108;6.100;2023-12-20T11:40:04;20.60;;;1.60;;
55641;SDS011;41509;53.108;6.100;2023-12-20T11:42:42;5.63;;;1.75;;
55641;SDS011;41509;53.108;6.100;2023-12-20T11:45:14;5.63;;;1.65;;
55641;SDS011;41509;53.108;6.100;2023-12-20T11:47:51;6.00;;;1.30;;
55641;SDS011;41509;53.108;6.100;2023-12-20T11:50:18;12.10;;;1.73;;
55641;SDS011;41509;53.108;6.100;2023-12-20T11:52:44;6.57;;;1.52;;
55641;SDS011;41509;53.108;6.100;2023-12-20T11:55:10;7.50;;;1.47;;
55641;SDS011;41509;53.108;6.100;2023-12-20T11:57:36;10.10;;;1.10;;
55641;SDS011;41509;53.108;6.100;2023-12-20T12:00:05;13.55;;;1.55;;
55641;SDS011;41509;53.108;6.100;2023-12-20T12:02:31;10.82;;;1.60;;
55641;SDS011;41509;53.108;6.100;2023-12-20T12:04:57;5.28;;;1.50;;
55641;SDS011;41509;53.108;6.100;2023-12-20T12:07:24;7.88;;;1.35;;
55641;SDS011;41509;53.108;6.100;2023-12-20T12:09:51;11.20;;;1.77;;
55641;SDS011;41509;53.108;6.100;2023-12-20T12:12:17;10.18;;;1.25;;
55641;SDS011;41509;53.108;6.100;2023-12-20T12:14:44;4.18;;;1.15;;
55641;SDS011;41509;53.108;6.100;2023-12-20T12:17:10;10.63;;;1.60;;
55641;SDS011;41509;53.108;6.100;2023-12-20T12:19:39;7.43;;;1.27;;
55641;SDS011;41509;53.108;6.100;2023-12-20T12:24:34;7.38;;;1.40;;
55641;SDS011;41509;53.108;6.100;2023-12-20T12:27:00;16.60;;;2.03;;
55641;SDS011;41509;53.108;6.100;2023-12-20T12:29:25;8.03;;;1.77;;
55641;SDS011;41509;53.108;6.100;2023-12-20T12:31:52;7.30;;;1.73;;
55641;SDS011;41509;53.108;6.100;2023-12-20T12:34:18;7.93;;;1.97;;
55641;SDS011;41509;53.108;6.100;2023-12-20T12:36:43;11.57;;;2.07;;
55641;SDS011;41509;53.108;6.100;2023-12-20T12:39:14;10.75;;;1.67;;
55641;SDS011;41509;53.108;6.100;2023-12-20T12:41:42;6.05;;;1.00;;
55641;SDS011;41509;53.108;6.100;2023-12-20T12:44:07;18.70;;;2.17;;
55641;SDS011;41509;53.108;6.100;2023-12-20T12:46:33;8.68;;;1.65;;
55641;SDS011;41509;53.108;6.100;2023-12-20T12:48:59;10.63;;;1.37;;
55641;SDS011;41509;53.108;6.100;2023-12-20T12:51:25;9.07;;;2.05;;
55641;SDS011;41509;53.108;6.100;2023-12-20T12:53:51;9.15;;;2.30;;
55641;SDS011;41509;53.108;6.100;2023-12-20T12:56:17;5.03;;;1.80;;
55641;SDS011;41509;53.108;6.100;2023-12-20T12:58:42;5.83;;;1.37;;
55641;SDS011;41509;53.108;6.100;2023-12-20T13:01:08;7.07;;;1.17;;
55641;SDS011;41509;53.108;6.100;2023-12-20T13:03:35;5.70;;;1.10;;
55641;SDS011;41509;53.108;6.100;2023-12-20T13:06:01;4.80;;;1.13;;
55641;SDS011;41509;53.108;6.100;2023-12-20T13:08:27;8.90;;;1.50;;
55641;SDS011;41509;53.108;6.100;2023-12-20T13:10:54;4.90;;;1.38;;
55641;SDS011;41509;53.108;6.100;2023-12-20T13:13:22;6.72;;;1.45;;
55641;SDS011;41509;53.108;6.100;2023-12-20T13:15:48;7.10;;;1.60;;
55641;SDS011;41509;53.108;6.100;2023-12-20T13:18:15;6.78;;;1.35;;
55641;SDS011;41509;53.108;6.100;2023-12-20T13:20:42;4.70;;;0.95;;
55641;SDS011;41509;53.108;6.100;2023-12-20T13:23:07;8.13;;;1.10;;
55641;SDS011;41509;53.108;6.100;2023-12-20T13:25:33;5.93;;;1.00;;
55641;SDS011;41509;53.108;6.100;2023-12-20T13:27:59;10.52;;;2.45;;
55641;SDS011;41509;53.108;6.100;2023-12-20T13:30:25;4.07;;;1.47;;
55641;SDS011;41509;53.108;6.100;2023-12-20T13:32:50;3.37;;;1.10;;
55641;SDS011;41509;53.108;6.100;2023-12-20T13:35:16;6.57;;;2.00;;
55641;SDS011;41509;53.108;6.100;2023-12-20T13:37:42;5.03;;;0.93;;
55641;SDS011;41509;53.108;6.100;2023-12-20T13:40:09;4.22;;;1.30;;
55641;SDS011;41509;53.108;6.100;2023-12-20T13:42:35;8.23;;;1.20;;
55641;SDS011;41509;53.108;6.100;2023-12-20T13:45:01;7.03;;;1.47;;
55641;SDS011;41509;53.108;6.100;2023-12-20T13:47:26;5.80;;;1.33;;
55641;SDS011;41509;53.108;6.100;2023-12-20T13:49:52;8.43;;;1.13;;
55641;SDS011;41509;53.108;6.100;2023-12-20T13:52:18;8.27;;;1.13;;
55641;SDS011;41509;53.108;6.100;2023-12-20T13:54:43;3.20;;;0.90;;
55641;SDS011;41509;53.108;6.100;2023-12-20T13:57:09;3.90;;;1.27;;
55641;SDS011;41509;53.108;6.100;2023-12-20T13:59:34;4.33;;;0.73;;
55641;SDS011;41509;53.108;6.100;2023-12-20T14:02:00;4.23;;;1.07;;
55641;SDS011;41509;53.108;6.100;2023-12-20T14:04:28;4.47;;;1.02;;
55641;SDS011;41509;53.108;6.100;2023-12-20T14:06:54;3.33;;;0.70;;
55641;SDS011;41509;53.108;6.100;2023-12-20T14:09:19;10.87;;;1.20;;
55641;SDS011;41509;53.108;6.100;2023-12-20T14:11:46;8.15;;;1.00;;
55641;SDS011;41509;53.108;6.100;2023-12-20T14:14:11;5.57;;;1.37;;
55641;SDS011;41509;53.108;6.100;2023-12-20T14:16:37;7.10;;;1.07;;
55641;SDS011;41509;53.108;6.100;2023-12-20T14:19:03;9.18;;;1.52;;
55641;SDS011;41509;53.108;6.100;2023-12-20T14:21:29;8.10;;;1.88;;
55641;SDS011;41509;53.108;6.100;2023-12-20T14:23:54;10.90;;;1.40;;
55641;SDS011;41509;53.108;6.100;2023-12-20T14:26:20;4.43;;;1.13;;
55641;SDS011;41509;53.108;6.100;2023-12-20T14:28:45;5.13;;;1.27;;
55641;SDS011;41509;53.108;6.100;2023-12-20T14:31:11;5.13;;;0.77;;
55641;SDS011;41509;53.108;6.100;2023-12-20T14:33:37;12.50;;;1.07;;
55641;SDS011;41509;53.108;6.100;2023-12-20T14:36:04;6.32;;;1.00;;
55641;SDS011;41509;53.108;6.100;2023-12-20T14:40:56;1.75;;;0.90;;
55641;SDS011;41509;53.108;6.100;2023-12-20T14:43:22;3.57;;;1.20;;
55641;SDS011;41509;53.108;6.100;2023-12-20T14:45:48;9.20;;;1.50;;
55641;SDS011;41509;53.108;6.100;2023-12-20T14:48:14;9.53;;;2.10;;
55641;SDS011;41509;53.108;6.100;2023-12-20T14:50:40;5.55;;;1.05;;
55641;SDS011;41509;53.108;6.100;2023-12-20T14:53:07;8.15;;;1.20;;
55641;SDS011;41509;53.108;6.100;2023-12-20T14:55:33;11.17;;;1.00;;
55641;SDS011;41509;53.108;6.100;2023-12-20T14:57:59;5.05;;;1.17;;
55641;SDS011;41509;53.108;6.100;2023-12-20T15:00:25;6.40;;;1.40;;
55641;SDS011;41509;53.108;6.100;2023-12-20T15:02:51;6.20;;;1.17;;
55641;SDS011;41509;53.108;6.100;2023-12-20T15:05:19;15.52;;;1.88;;